sensor_id;sensor_type;location;lat;lon;timestamp;temperature;humidity
11387;DHT22;5748;53.102;8.456;2023-02-18T00:00:20;9.90;65.00
11387;DHT22;5748;53.102;8.456;2023-02-18T00:02:54;10.00;64.10
11387;DHT22;5748;53.102;8.456;2023-02-18T00:05:21;10.00;63.90
11387;DHT22;5748;53.102;8.456;2023-02-18T00:07:55;10.00;64.10
11387;DHT22;5748;53.102;8.456;2023-02-18T00:10:25;10.00;64.10
11387;DHT22;5748;53.102;8.456;2023-02-18T00:12:52;10.00;64.10
11387;DHT22;5748;53.102;8.456;2023-02-18T00:15:21;10.00;64.20
11387;DHT22;5748;53.102;8.456;2023-02-18T00:17:49;10.10;64.30
11387;DHT22;5748;53.102;8.456;2023-02-18T00:20:17;10.10;64.30
11387;DHT22;5748;53.102;8.456;2023-02-18T00:22:44;10.10;64.40
11387;DHT22;5748;53.102;8.456;2023-02-18T00:25:20;10.10;64.50
11387;DHT22;5748;53.102;8.456;2023-02-18T00:27:48;11.00;65.30
11387;DHT22;5748;53.102;8.456;2023-02-18T00:30:39;10.20;64.50
11387;DHT22;5748;53.102;8.456;2023-02-18T00:33:06;10.20;64.40
11387;DHT22;5748;53.102;8.456;2023-02-18T00:35:33;10.20;64.40
11387;DHT22;5748;53.102;8.456;2023-02-18T00:38:00;10.30;64.60
11387;DHT22;5748;53.102;8.456;2023-02-18T00:40:27;10.40;64.60
11387;DHT22;5748;53.102;8.456;2023-02-18T00:42:54;10.30;64.30
11387;DHT22;5748;53.102;8.456;2023-02-18T00:45:21;10.40;64.50
11387;DHT22;5748;53.102;8.456;2023-02-18T00:47:50;10.40;64.50
11387;DHT22;5748;53.102;8.456;2023-02-18T00:50:17;10.40;64.50
11387;DHT22;5748;53.102;8.456;2023-02-18T00:52:52;10.40;64.50
11387;DHT22;5748;53.102;8.456;2023-02-18T00:55:19;10.50;64.50
11387;DHT22;5748;53.102;8.456;2023-02-18T00:57:46;10.50;64.50
11387;DHT22;5748;53.102;8.456;2023-02-18T01:00:14;10.60;64.60
11387;DHT22;5748;53.102;8.456;2023-02-18T01:02:41;10.60;64.70
11387;DHT22;5748;53.102;8.456;2023-02-18T01:05:09;10.60;64.70
11387;DHT22;5748;53.102;8.456;2023-02-18T01:07:37;10.60;64.70
11387;DHT22;5748;53.102;8.456;2023-02-18T01:10:05;10.70;64.70
11387;DHT22;5748;53.102;8.456;2023-02-18T01:12:33;10.70;64.80
11387;DHT22;5748;53.102;8.456;2023-02-18T01:15:00;10.80;64.70
11387;DHT22;5748;53.102;8.456;2023-02-18T01:17:36;10.80;64.60
11387;DHT22;5748;53.102;8.456;2023-02-18T01:20:04;10.80;64.50
11387;DHT22;5748;53.102;8.456;2023-02-18T01:22:33;10.80;64.40
11387;DHT22;5748;53.102;8.456;2023-02-18T01:25:01;10.90;64.50
11387;DHT22;5748;53.102;8.456;2023-02-18T01:27:28;10.90;64.60
11387;DHT22;5748;53.102;8.456;2023-02-18T01:29:55;10.90;64.60
11387;DHT22;5748;53.102;8.456;2023-02-18T01:32:23;10.90;64.40
11387;DHT22;5748;53.102;8.456;2023-02-18T01:34:50;11.20;64.50
11387;DHT22;5748;53.102;8.456;2023-02-18T01:37:17;10.90;64.30
11387;DHT22;5748;53.102;8.456;2023-02-18T01:39:50;10.90;64.20
11387;DHT22;5748;53.102;8.456;2023-02-18T01:42:20;11.00;64.40
11387;DHT22;5748;53.102;8.456;2023-02-18T01:44:49;11.00;64.40
11387;DHT22;5748;53.102;8.456;2023-02-18T01:47:17;11.00;64.40
11387;DHT22;5748;53.102;8.456;2023-02-18T01:49:47;11.00;64.50
11387;DHT22;5748;53.102;8.456;2023-02-18T01:52:19;11.00;64.40
11387;DHT22;5748;53.102;8.456;2023-02-18T01:54:52;11.10;65.30
11387;DHT22;5748;53.102;8.456;2023-02-18T01:57:24;11.10;64.50
11387;DHT22;5748;53.102;8.456;2023-02-18T01:59:56;11.10;64.30
11387;DHT22;5748;53.102;8.456;2023-02-18T02:02:27;11.10;64.20
11387;DHT22;5748;53.102;8.456;2023-02-18T02:04:55;11.10;64.10
11387;DHT22;5748;53.102;8.456;2023-02-18T02:07:25;11.10;64.10
11387;DHT22;5748;53.102;8.456;2023-02-18T02:09:55;11.10;64.10
11387;DHT22;5748;53.102;8.456;2023-02-18T02:15:26;11.10;64.10
11387;DHT22;5748;53.102;8.456;2023-02-18T02:18:11;11.10;64.20
11387;DHT22;5748;53.102;8.456;2023-02-18T02:24:28;11.00;64.00
11387;DHT22;5748;53.102;8.456;2023-02-18T02:27:24;11.10;64.80
11387;DHT22;5748;53.102;8.456;2023-02-18T02:30:27;11.10;64.10
11387;DHT22;5748;53.102;8.456;2023-02-18T02:33:41;11.00;63.90
11387;DHT22;5748;53.102;8.456;2023-02-18T02:36:23;11.00;63.90
11387;DHT22;5748;53.102;8.456;2023-02-18T02:38:57;11.00;64.00
11387;DHT22;5748;53.102;8.456;2023-02-18T02:41:39;11.00;64.20
11387;DHT22;5748;53.102;8.456;2023-02-18T02:44:19;11.10;64.30
11387;DHT22;5748;53.102;8.456;2023-02-18T02:46:50;11.10;64.30
11387;DHT22;5748;53.102;8.456;2023-02-18T02:49:27;11.10;64.20
11387;DHT22;5748;53.102;8.456;2023-02-18T02:52:06;11.10;64.20
11387;DHT22;5748;53.102;8.456;2023-02-18T02:54:35;11.10;64.20
11387;DHT22;5748;53.102;8.456;2023-02-18T03:00:13;11.10;64.20
11387;DHT22;5748;53.102;8.456;2023-02-18T03:03:11;11.20;64.30
11387;DHT22;5748;53.102;8.456;2023-02-18T03:06:07;11.20;64.10
11387;DHT22;5748;53.102;8.456;2023-02-18T03:08:51;11.30;64.40
11387;DHT22;5748;53.102;8.456;2023-02-18T03:11:22;11.30;64.40
11387;DHT22;5748;53.102;8.456;2023-02-18T03:14:00;11.30;64.40
11387;DHT22;5748;53.102;8.456;2023-02-18T03:16:34;11.30;64.40
11387;DHT22;5748;53.102;8.456;2023-02-18T03:19:08;11.30;64.30
11387;DHT22;5748;53.102;8.456;2023-02-18T03:21:41;11.80;64.70
11387;DHT22;5748;53.102;8.456;2023-02-18T03:24:15;11.40;64.10
11387;DHT22;5748;53.102;8.456;2023-02-18T03:26:53;11.40;64.10
11387;DHT22;5748;53.102;8.456;2023-02-18T03:29:22;11.40;64.20
11387;DHT22;5748;53.102;8.456;2023-02-18T03:31:56;11.40;64.30
11387;DHT22;5748;53.102;8.456;2023-02-18T03:34:27;11.40;64.30
11387;DHT22;5748;53.102;8.456;2023-02-18T03:36:57;11.40;64.30
11387;DHT22;5748;53.102;8.456;2023-02-18T03:39:28;11.40;64.30
11387;DHT22;5748;53.102;8.456;2023-02-18T03:41:56;11.40;64.20
11387;DHT22;5748;53.102;8.456;2023-02-18T03:44:24;11.50;64.20
11387;DHT22;5748;53.102;8.456;2023-02-18T03:46:51;11.50;64.30
11387;DHT22;5748;53.102;8.456;2023-02-18T03:49:18;11.50;64.30
11387;DHT22;5748;53.102;8.456;2023-02-18T03:51:46;11.50;64.20
11387;DHT22;5748;53.102;8.456;2023-02-18T03:54:13;11.50;64.30
11387;DHT22;5748;53.102;8.456;2023-02-18T03:56:41;11.70;64.50
11387;DHT22;5748;53.102;8.456;2023-02-18T03:59:09;13.50;66.20
11387;DHT22;5748;53.102;8.456;2023-02-18T04:01:37;11.50;64.30
11387;DHT22;5748;53.102;8.456;2023-02-18T04:04:12;11.50;64.30
11387;DHT22;5748;53.102;8.456;2023-02-18T04:06:39;11.50;64.20
11387;DHT22;5748;53.102;8.456;2023-02-18T04:09:06;11.60;64.40
11387;DHT22;5748;53.102;8.456;2023-02-18T04:11:35;11.60;64.40
11387;DHT22;5748;53.102;8.456;2023-02-18T04:14:04;11.60;64.50
11387;DHT22;5748;53.102;8.456;2023-02-18T04:16:34;11.60;64.30
11387;DHT22;5748;53.102;8.456;2023-02-18T04:19:02;11.60;64.20
11387;DHT22;5748;53.102;8.456;2023-02-18T04:21:29;13.70;66.90
11387;DHT22;5748;53.102;8.456;2023-02-18T04:23:56;11.60;64.50
11387;DHT22;5748;53.102;8.456;2023-02-18T04:26:23;11.60;64.30
11387;DHT22;5748;53.102;8.456;2023-02-18T04:28:50;11.70;64.40
11387;DHT22;5748;53.102;8.456;2023-02-18T04:31:19;11.60;64.40
11387;DHT22;5748;53.102;8.456;2023-02-18T04:33:46;11.60;64.30
11387;DHT22;5748;53.102;8.456;2023-02-18T04:36:14;11.60;64.40
11387;DHT22;5748;53.102;8.456;2023-02-18T04:38:41;12.80;65.70
11387;DHT22;5748;53.102;8.456;2023-02-18T04:41:08;11.70;66.80
11387;DHT22;5748;53.102;8.456;2023-02-18T04:43:37;13.40;67.40
11387;DHT22;5748;53.102;8.456;2023-02-18T04:46:04;11.50;64.50
11387;DHT22;5748;53.102;8.456;2023-02-18T04:48:33;11.60;64.70
11387;DHT22;5748;53.102;8.456;2023-02-18T04:51:00;11.60;64.80
11387;DHT22;5748;53.102;8.456;2023-02-18T04:53:29;11.50;64.80
11387;DHT22;5748;53.102;8.456;2023-02-18T04:55:56;11.60;64.90
11387;DHT22;5748;53.102;8.456;2023-02-18T04:58:24;11.50;65.70
11387;DHT22;5748;53.102;8.456;2023-02-18T05:00:51;11.50;65.20
11387;DHT22;5748;53.102;8.456;2023-02-18T05:03:19;11.50;65.20
11387;DHT22;5748;53.102;8.456;2023-02-18T05:05:47;11.50;65.20
11387;DHT22;5748;53.102;8.456;2023-02-18T05:08:14;11.50;65.40
11387;DHT22;5748;53.102;8.456;2023-02-18T05:10:41;11.50;65.40
11387;DHT22;5748;53.102;8.456;2023-02-18T05:13:08;11.60;65.60
11387;DHT22;5748;53.102;8.456;2023-02-18T05:15:35;11.50;65.60
11387;DHT22;5748;53.102;8.456;2023-02-18T05:18:03;11.50;65.80
11387;DHT22;5748;53.102;8.456;2023-02-18T05:20:31;11.50;65.80
11387;DHT22;5748;53.102;8.456;2023-02-18T05:23:00;12.20;66.60
11387;DHT22;5748;53.102;8.456;2023-02-18T05:25:27;13.10;67.50
11387;DHT22;5748;53.102;8.456;2023-02-18T05:27:54;11.50;65.90
11387;DHT22;5748;53.102;8.456;2023-02-18T05:30:25;11.40;65.80
11387;DHT22;5748;53.102;8.456;2023-02-18T05:32:53;11.50;66.10
11387;DHT22;5748;53.102;8.456;2023-02-18T05:35:29;11.60;66.20
11387;DHT22;5748;53.102;8.456;2023-02-18T05:37:56;11.60;66.40
11387;DHT22;5748;53.102;8.456;2023-02-18T05:40:24;11.80;66.50
11387;DHT22;5748;53.102;8.456;2023-02-18T05:42:51;11.60;66.30
11387;DHT22;5748;53.102;8.456;2023-02-18T05:45:18;11.60;66.30
11387;DHT22;5748;53.102;8.456;2023-02-18T05:47:45;11.60;66.30
11387;DHT22;5748;53.102;8.456;2023-02-18T05:50:17;11.60;66.30
11387;DHT22;5748;53.102;8.456;2023-02-18T05:52:44;11.60;66.50
11387;DHT22;5748;53.102;8.456;2023-02-18T05:55:11;11.70;66.40
11387;DHT22;5748;53.102;8.456;2023-02-18T05:57:40;11.70;66.40
11387;DHT22;5748;53.102;8.456;2023-02-18T06:00:08;11.70;66.50
11387;DHT22;5748;53.102;8.456;2023-02-18T06:02:36;11.80;66.60
11387;DHT22;5748;53.102;8.456;2023-02-18T06:05:04;11.80;66.50
11387;DHT22;5748;53.102;8.456;2023-02-18T06:07:31;11.80;66.60
11387;DHT22;5748;53.102;8.456;2023-02-18T06:09:58;11.80;66.50
11387;DHT22;5748;53.102;8.456;2023-02-18T06:12:25;11.80;66.50
11387;DHT22;5748;53.102;8.456;2023-02-18T06:14:54;11.80;66.50
11387;DHT22;5748;53.102;8.456;2023-02-18T06:17:21;11.80;66.50
11387;DHT22;5748;53.102;8.456;2023-02-18T06:19:48;11.80;66.60
11387;DHT22;5748;53.102;8.456;2023-02-18T06:22:15;11.80;66.50
11387;DHT22;5748;53.102;8.456;2023-02-18T06:24:42;11.80;66.50
11387;DHT22;5748;53.102;8.456;2023-02-18T06:27:09;11.80;66.60
11387;DHT22;5748;53.102;8.456;2023-02-18T06:29:36;11.80;66.60
11387;DHT22;5748;53.102;8.456;2023-02-18T06:32:05;11.80;66.60
11387;DHT22;5748;53.102;8.456;2023-02-18T06:34:32;11.80;66.80
11387;DHT22;5748;53.102;8.456;2023-02-18T06:36:59;11.80;66.70
11387;DHT22;5748;53.102;8.456;2023-02-18T06:39:26;11.70;66.70
11387;DHT22;5748;53.102;8.456;2023-02-18T06:41:53;11.80;66.70
11387;DHT22;5748;53.102;8.456;2023-02-18T06:44:20;11.80;66.80
11387;DHT22;5748;53.102;8.456;2023-02-18T06:46:48;13.90;68.90
11387;DHT22;5748;53.102;8.456;2023-02-18T06:49:16;11.80;66.90
11387;DHT22;5748;53.102;8.456;2023-02-18T06:51:44;11.80;67.00
11387;DHT22;5748;53.102;8.456;2023-02-18T06:54:11;11.90;67.20
11387;DHT22;5748;53.102;8.456;2023-02-18T06:56:38;11.80;67.10
11387;DHT22;5748;53.102;8.456;2023-02-18T06:59:05;11.80;67.10
11387;DHT22;5748;53.102;8.456;2023-02-18T07:01:33;11.80;67.20
11387;DHT22;5748;53.102;8.456;2023-02-18T07:04:00;11.90;67.30
11387;DHT22;5748;53.102;8.456;2023-02-18T07:06:30;11.90;67.30
11387;DHT22;5748;53.102;8.456;2023-02-18T07:08:57;11.90;67.40
11387;DHT22;5748;53.102;8.456;2023-02-18T07:11:24;11.90;67.30
11387;DHT22;5748;53.102;8.456;2023-02-18T07:13:57;11.90;67.30
11387;DHT22;5748;53.102;8.456;2023-02-18T07:16:24;11.90;67.50
11387;DHT22;5748;53.102;8.456;2023-02-18T07:18:51;11.90;67.40
11387;DHT22;5748;53.102;8.456;2023-02-18T07:21:19;11.90;67.60
11387;DHT22;5748;53.102;8.456;2023-02-18T07:23:47;11.90;67.70
11387;DHT22;5748;53.102;8.456;2023-02-18T07:26:14;11.90;67.70
11387;DHT22;5748;53.102;8.456;2023-02-18T07:28:41;11.90;67.90
11387;DHT22;5748;53.102;8.456;2023-02-18T07:31:09;11.90;67.90
11387;DHT22;5748;53.102;8.456;2023-02-18T07:33:36;11.90;68.10
11387;DHT22;5748;53.102;8.456;2023-02-18T07:36:03;11.90;68.00
11387;DHT22;5748;53.102;8.456;2023-02-18T07:38:31;11.90;68.20
11387;DHT22;5748;53.102;8.456;2023-02-18T07:40:59;11.90;68.10
11387;DHT22;5748;53.102;8.456;2023-02-18T07:43:27;12.00;68.50
11387;DHT22;5748;53.102;8.456;2023-02-18T07:45:54;12.10;68.60
11387;DHT22;5748;53.102;8.456;2023-02-18T07:48:22;12.00;68.40
11387;DHT22;5748;53.102;8.456;2023-02-18T07:50:49;12.10;68.60
11387;DHT22;5748;53.102;8.456;2023-02-18T07:53:16;12.10;68.80
11387;DHT22;5748;53.102;8.456;2023-02-18T07:55:54;12.10;69.40
11387;DHT22;5748;53.102;8.456;2023-02-18T07:58:35;12.10;69.70
11387;DHT22;5748;53.102;8.456;2023-02-18T08:01:11;12.20;71.20
11387;DHT22;5748;53.102;8.456;2023-02-18T08:03:51;13.00;71.20
11387;DHT22;5748;53.102;8.456;2023-02-18T08:06:48;14.50;73.40
11387;DHT22;5748;53.102;8.456;2023-02-18T08:09:27;11.50;70.10
11387;DHT22;5748;53.102;8.456;2023-02-18T08:11:55;12.40;71.80
11387;DHT22;5748;53.102;8.456;2023-02-18T08:14:24;14.80;73.80
11387;DHT22;5748;53.102;8.456;2023-02-18T08:16:51;12.50;72.10
11387;DHT22;5748;53.102;8.456;2023-02-18T08:19:19;12.50;72.10
11387;DHT22;5748;53.102;8.456;2023-02-18T08:22:04;12.70;72.10
11387;DHT22;5748;53.102;8.456;2023-02-18T08:24:31;12.70;72.50
11387;DHT22;5748;53.102;8.456;2023-02-18T08:27:00;12.80;72.90
11387;DHT22;5748;53.102;8.456;2023-02-18T08:32:25;12.80;73.70
11387;DHT22;5748;53.102;8.456;2023-02-18T08:35:06;12.90;73.20
11387;DHT22;5748;53.102;8.456;2023-02-18T08:37:35;13.00;74.20
11387;DHT22;5748;53.102;8.456;2023-02-18T08:40:05;13.00;73.40
11387;DHT22;5748;53.102;8.456;2023-02-18T08:45:40;13.10;74.40
11387;DHT22;5748;53.102;8.456;2023-02-18T08:48:26;13.20;73.90
11387;DHT22;5748;53.102;8.456;2023-02-18T08:50:54;13.20;75.50
11387;DHT22;5748;53.102;8.456;2023-02-18T08:53:21;13.20;74.60
11387;DHT22;5748;53.102;8.456;2023-02-18T08:59:00;13.30;75.40
11387;DHT22;5748;53.102;8.456;2023-02-18T09:01:36;13.40;73.80
11387;DHT22;5748;53.102;8.456;2023-02-18T09:04:03;13.40;74.00
11387;DHT22;5748;53.102;8.456;2023-02-18T09:06:40;13.50;73.80
11387;DHT22;5748;53.102;8.456;2023-02-18T09:09:08;13.50;74.30
11387;DHT22;5748;53.102;8.456;2023-02-18T09:11:35;13.50;74.50
11387;DHT22;5748;53.102;8.456;2023-02-18T09:14:03;13.50;74.70
11387;DHT22;5748;53.102;8.456;2023-02-18T09:16:30;13.60;74.10
11387;DHT22;5748;53.102;8.456;2023-02-18T09:18:58;13.70;74.20
11387;DHT22;5748;53.102;8.456;2023-02-18T09:21:26;13.70;74.20
11387;DHT22;5748;53.102;8.456;2023-02-18T09:23:54;13.60;74.50
11387;DHT22;5748;53.102;8.456;2023-02-18T09:26:21;13.70;74.20
11387;DHT22;5748;53.102;8.456;2023-02-18T09:28:50;13.70;74.80
11387;DHT22;5748;53.102;8.456;2023-02-18T09:31:42;13.70;74.80
11387;DHT22;5748;53.102;8.456;2023-02-18T09:34:11;13.70;75.30
11387;DHT22;5748;53.102;8.456;2023-02-18T09:36:38;13.80;74.30
11387;DHT22;5748;53.102;8.456;2023-02-18T09:39:05;13.80;74.60
11387;DHT22;5748;53.102;8.456;2023-02-18T09:41:52;13.80;74.50
11387;DHT22;5748;53.102;8.456;2023-02-18T09:44:24;13.80;74.60
11387;DHT22;5748;53.102;8.456;2023-02-18T09:47:00;13.80;74.10
11387;DHT22;5748;53.102;8.456;2023-02-18T09:49:32;13.80;74.40
11387;DHT22;5748;53.102;8.456;2023-02-18T09:52:06;13.80;74.20
11387;DHT22;5748;53.102;8.456;2023-02-18T09:54:38;13.80;74.60
11387;DHT22;5748;53.102;8.456;2023-02-18T09:57:16;13.80;74.40
11387;DHT22;5748;53.102;8.456;2023-02-18T09:59:55;13.80;74.20
11387;DHT22;5748;53.102;8.456;2023-02-18T10:02:26;13.70;74.60
11387;DHT22;5748;53.102;8.456;2023-02-18T10:08:03;13.70;75.20
11387;DHT22;5748;53.102;8.456;2023-02-18T10:10:36;13.70;75.10
11387;DHT22;5748;53.102;8.456;2023-02-18T10:13:12;13.60;74.60
11387;DHT22;5748;53.102;8.456;2023-02-18T10:15:43;13.70;75.50
11387;DHT22;5748;53.102;8.456;2023-02-18T10:18:24;13.60;75.80
11387;DHT22;5748;53.102;8.456;2023-02-18T10:21:04;13.60;75.00
11387;DHT22;5748;53.102;8.456;2023-02-18T10:23:36;13.60;75.70
11387;DHT22;5748;53.102;8.456;2023-02-18T10:26:11;13.60;74.80
11387;DHT22;5748;53.102;8.456;2023-02-18T10:28:41;13.60;75.10
11387;DHT22;5748;53.102;8.456;2023-02-18T10:31:09;13.60;74.90
11387;DHT22;5748;53.102;8.456;2023-02-18T10:33:45;13.60;75.00
11387;DHT22;5748;53.102;8.456;2023-02-18T10:36:23;13.70;74.70
11387;DHT22;5748;53.102;8.456;2023-02-18T10:42:22;13.70;75.20
11387;DHT22;5748;53.102;8.456;2023-02-18T10:45:21;13.70;75.50
11387;DHT22;5748;53.102;8.456;2023-02-18T10:48:02;13.70;75.50
11387;DHT22;5748;53.102;8.456;2023-02-18T10:50:37;13.70;75.20
11387;DHT22;5748;53.102;8.456;2023-02-18T10:53:13;13.70;75.30
11387;DHT22;5748;53.102;8.456;2023-02-18T10:55:46;13.70;75.50
11387;DHT22;5748;53.102;8.456;2023-02-18T10:58:32;13.70;75.10
11387;DHT22;5748;53.102;8.456;2023-02-18T11:01:02;13.70;75.50
11387;DHT22;5748;53.102;8.456;2023-02-18T11:03:39;13.70;74.90
11387;DHT22;5748;53.102;8.456;2023-02-18T11:06:21;13.70;75.40
11387;DHT22;5748;53.102;8.456;2023-02-18T11:08:52;13.80;75.30
11387;DHT22;5748;53.102;8.456;2023-02-18T11:11:27;13.70;75.30
11387;DHT22;5748;53.102;8.456;2023-02-18T11:13:57;13.70;75.20
11387;DHT22;5748;53.102;8.456;2023-02-18T11:16:53;13.90;75.40
11387;DHT22;5748;53.102;8.456;2023-02-18T11:19:31;13.70;75.70
11387;DHT22;5748;53.102;8.456;2023-02-18T11:22:07;13.70;75.50
11387;DHT22;5748;53.102;8.456;2023-02-18T11:24:40;13.60;75.10
11387;DHT22;5748;53.102;8.456;2023-02-18T11:27:20;13.70;75.50
11387;DHT22;5748;53.102;8.456;2023-02-18T11:29:52;13.70;75.40
11387;DHT22;5748;53.102;8.456;2023-02-18T11:32:28;14.00;75.10
11387;DHT22;5748;53.102;8.456;2023-02-18T11:34:57;13.60;75.10
11387;DHT22;5748;53.102;8.456;2023-02-18T11:37:25;13.70;74.90
11387;DHT22;5748;53.102;8.456;2023-02-18T11:39:55;13.70;75.40
11387;DHT22;5748;53.102;8.456;2023-02-18T11:42:24;13.60;75.10
11387;DHT22;5748;53.102;8.456;2023-02-18T11:44:53;13.60;75.20
11387;DHT22;5748;53.102;8.456;2023-02-18T11:47:24;13.70;75.30
11387;DHT22;5748;53.102;8.456;2023-02-18T11:50:09;13.70;74.90
11387;DHT22;5748;53.102;8.456;2023-02-18T11:52:45;13.70;75.50
11387;DHT22;5748;53.102;8.456;2023-02-18T11:55:17;15.20;76.90
11387;DHT22;5748;53.102;8.456;2023-02-18T11:57:49;13.70;74.80
11387;DHT22;5748;53.102;8.456;2023-02-18T12:00:22;15.70;77.10
11387;DHT22;5748;53.102;8.456;2023-02-18T12:02:52;13.70;74.90
11387;DHT22;5748;53.102;8.456;2023-02-18T12:05:23;13.70;75.10
11387;DHT22;5748;53.102;8.456;2023-02-18T12:07:56;14.60;75.80
11387;DHT22;5748;53.102;8.456;2023-02-18T12:10:35;13.90;75.30
11387;DHT22;5748;53.102;8.456;2023-02-18T12:13:14;13.80;75.50
11387;DHT22;5748;53.102;8.456;2023-02-18T12:16:14;13.70;75.20
11387;DHT22;5748;53.102;8.456;2023-02-18T12:19:04;13.80;75.30
11387;DHT22;5748;53.102;8.456;2023-02-18T12:21:51;13.80;75.00
11387;DHT22;5748;53.102;8.456;2023-02-18T12:24:34;13.80;75.20
11387;DHT22;5748;53.102;8.456;2023-02-18T12:27:15;13.80;75.10
11387;DHT22;5748;53.102;8.456;2023-02-18T12:30:19;13.70;75.20
11387;DHT22;5748;53.102;8.456;2023-02-18T12:32:58;13.70;75.30
11387;DHT22;5748;53.102;8.456;2023-02-18T12:35:43;13.70;74.90
11387;DHT22;5748;53.102;8.456;2023-02-18T12:41:39;13.70;75.60
11387;DHT22;5748;53.102;8.456;2023-02-18T12:44:36;13.70;75.40
11387;DHT22;5748;53.102;8.456;2023-02-18T12:47:30;13.70;75.30
11387;DHT22;5748;53.102;8.456;2023-02-18T12:50:26;13.80;75.60
11387;DHT22;5748;53.102;8.456;2023-02-18T12:53:20;13.80;75.50
11387;DHT22;5748;53.102;8.456;2023-02-18T12:56:25;13.80;75.20
11387;DHT22;5748;53.102;8.456;2023-02-18T12:59:06;13.80;75.50
11387;DHT22;5748;53.102;8.456;2023-02-18T13:01:45;13.80;75.20
11387;DHT22;5748;53.102;8.456;2023-02-18T13:04:36;13.90;75.10
11387;DHT22;5748;53.102;8.456;2023-02-18T13:07:41;13.90;75.50
11387;DHT22;5748;53.102;8.456;2023-02-18T13:13:48;13.90;74.80
11387;DHT22;5748;53.102;8.456;2023-02-18T13:16:23;14.00;74.60
11387;DHT22;5748;53.102;8.456;2023-02-18T13:19:00;14.00;74.90
11387;DHT22;5748;53.102;8.456;2023-02-18T13:21:30;14.00;74.70
11387;DHT22;5748;53.102;8.456;2023-02-18T13:24:01;14.00;74.40
11387;DHT22;5748;53.102;8.456;2023-02-18T13:26:32;14.20;74.60
11387;DHT22;5748;53.102;8.456;2023-02-18T13:29:14;14.10;74.30
11387;DHT22;5748;53.102;8.456;2023-02-18T13:31:55;14.20;74.40
11387;DHT22;5748;53.102;8.456;2023-02-18T13:34:33;14.80;74.80
11387;DHT22;5748;53.102;8.456;2023-02-18T13:37:09;14.20;74.10
11387;DHT22;5748;53.102;8.456;2023-02-18T13:39:49;14.20;74.00
11387;DHT22;5748;53.102;8.456;2023-02-18T13:42:34;14.20;74.60
11387;DHT22;5748;53.102;8.456;2023-02-18T13:45:29;14.20;73.80
11387;DHT22;5748;53.102;8.456;2023-02-18T13:47:58;14.20;73.90
11387;DHT22;5748;53.102;8.456;2023-02-18T13:50:30;14.20;73.60
11387;DHT22;5748;53.102;8.456;2023-02-18T13:53:22;14.20;73.50
11387;DHT22;5748;53.102;8.456;2023-02-18T13:55:56;14.20;73.50
11387;DHT22;5748;53.102;8.456;2023-02-18T13:58:30;14.20;73.40
11387;DHT22;5748;53.102;8.456;2023-02-18T14:01:24;14.30;73.40
11387;DHT22;5748;53.102;8.456;2023-02-18T14:07:48;14.20;73.20
11387;DHT22;5748;53.102;8.456;2023-02-18T14:10:30;14.20;73.10
11387;DHT22;5748;53.102;8.456;2023-02-18T14:13:23;14.20;73.00
11387;DHT22;5748;53.102;8.456;2023-02-18T14:15:59;14.20;72.90
11387;DHT22;5748;53.102;8.456;2023-02-18T14:18:55;14.20;72.90
11387;DHT22;5748;53.102;8.456;2023-02-18T14:21:42;14.20;72.70
11387;DHT22;5748;53.102;8.456;2023-02-18T14:24:12;14.20;72.70
11387;DHT22;5748;53.102;8.456;2023-02-18T14:26:43;14.20;72.70
11387;DHT22;5748;53.102;8.456;2023-02-18T14:29:30;14.30;72.90
11387;DHT22;5748;53.102;8.456;2023-02-18T14:32:00;14.30;72.50
11387;DHT22;5748;53.102;8.456;2023-02-18T14:34:44;14.40;72.80
11387;DHT22;5748;53.102;8.456;2023-02-18T14:41:09;14.50;71.90
11387;DHT22;5748;53.102;8.456;2023-02-18T14:44:14;14.50;71.30
11387;DHT22;5748;53.102;8.456;2023-02-18T14:47:01;14.50;71.10
11387;DHT22;5748;53.102;8.456;2023-02-18T14:49:56;14.50;71.00
11387;DHT22;5748;53.102;8.456;2023-02-18T14:52:30;14.50;71.20
11387;DHT22;5748;53.102;8.456;2023-02-18T14:55:02;14.50;71.00
11387;DHT22;5748;53.102;8.456;2023-02-18T14:57:38;14.50;71.10
11387;DHT22;5748;53.102;8.456;2023-02-18T15:00:15;14.50;70.70
11387;DHT22;5748;53.102;8.456;2023-02-18T15:02:43;14.50;70.90
11387;DHT22;5748;53.102;8.456;2023-02-18T15:05:16;14.50;71.00
11387;DHT22;5748;53.102;8.456;2023-02-18T15:07:58;14.50;70.80
11387;DHT22;5748;53.102;8.456;2023-02-18T15:10:35;14.50;70.80
11387;DHT22;5748;53.102;8.456;2023-02-18T15:13:11;14.40;70.70
11387;DHT22;5748;53.102;8.456;2023-02-18T15:15:43;14.40;70.60
11387;DHT22;5748;53.102;8.456;2023-02-18T15:18:19;14.50;70.70
11387;DHT22;5748;53.102;8.456;2023-02-18T15:20:50;14.40;70.60
11387;DHT22;5748;53.102;8.456;2023-02-18T15:23:17;14.40;70.10
11387;DHT22;5748;53.102;8.456;2023-02-18T15:25:48;14.40;70.40
11387;DHT22;5748;53.102;8.456;2023-02-18T15:28:23;14.40;70.20
11387;DHT22;5748;53.102;8.456;2023-02-18T15:30:55;14.30;70.30
11387;DHT22;5748;53.102;8.456;2023-02-18T15:33:49;14.40;70.40
11387;DHT22;5748;53.102;8.456;2023-02-18T15:36:18;14.30;70.30
11387;DHT22;5748;53.102;8.456;2023-02-18T15:38:45;14.40;70.50
11387;DHT22;5748;53.102;8.456;2023-02-18T15:41:14;14.20;70.30
11387;DHT22;5748;53.102;8.456;2023-02-18T15:43:53;14.30;70.60
11387;DHT22;5748;53.102;8.456;2023-02-18T15:46:22;14.20;70.60
11387;DHT22;5748;53.102;8.456;2023-02-18T15:48:53;14.20;70.60
11387;DHT22;5748;53.102;8.456;2023-02-18T15:51:35;14.20;70.70
11387;DHT22;5748;53.102;8.456;2023-02-18T15:54:02;14.20;70.70
11387;DHT22;5748;53.102;8.456;2023-02-18T15:56:33;14.10;70.70
11387;DHT22;5748;53.102;8.456;2023-02-18T15:59:16;14.00;70.40
11387;DHT22;5748;53.102;8.456;2023-02-18T16:01:48;14.10;70.50
11387;DHT22;5748;53.102;8.456;2023-02-18T16:04:19;14.10;70.50
11387;DHT22;5748;53.102;8.456;2023-02-18T16:06:49;14.10;70.30
11387;DHT22;5748;53.102;8.456;2023-02-18T16:09:21;14.00;70.10
11387;DHT22;5748;53.102;8.456;2023-02-18T16:11:52;14.00;70.20
11387;DHT22;5748;53.102;8.456;2023-02-18T16:14:30;13.90;70.10
11387;DHT22;5748;53.102;8.456;2023-02-18T16:17:13;14.00;70.10
11387;DHT22;5748;53.102;8.456;2023-02-18T16:19:52;13.90;70.00
11387;DHT22;5748;53.102;8.456;2023-02-18T16:22:25;13.80;69.90
11387;DHT22;5748;53.102;8.456;2023-02-18T16:25:01;13.80;70.20
11387;DHT22;5748;53.102;8.456;2023-02-18T16:27:36;13.70;70.10
11387;DHT22;5748;53.102;8.456;2023-02-18T16:30:14;13.70;70.10
11387;DHT22;5748;53.102;8.456;2023-02-18T16:32:42;13.70;70.00
11387;DHT22;5748;53.102;8.456;2023-02-18T16:35:10;13.80;70.90
11387;DHT22;5748;53.102;8.456;2023-02-18T16:37:45;13.70;70.20
11387;DHT22;5748;53.102;8.456;2023-02-18T16:40:24;13.60;70.10
11387;DHT22;5748;53.102;8.456;2023-02-18T16:43:18;13.60;70.00
11387;DHT22;5748;53.102;8.456;2023-02-18T16:45:51;13.60;69.80
11387;DHT22;5748;53.102;8.456;2023-02-18T16:48:22;13.60;69.90
11387;DHT22;5748;53.102;8.456;2023-02-18T16:51:13;13.50;69.90
11387;DHT22;5748;53.102;8.456;2023-02-18T16:53:53;13.60;70.50
11387;DHT22;5748;53.102;8.456;2023-02-18T16:56:32;13.80;70.80
11387;DHT22;5748;53.102;8.456;2023-02-18T16:59:50;14.90;72.00
11387;DHT22;5748;53.102;8.456;2023-02-18T17:02:57;13.40;70.00
11387;DHT22;5748;53.102;8.456;2023-02-18T17:05:26;13.50;70.20